Lee-on-the-Solent, United Kingdom
Current Conditions -  °F | °C
As of 8:20 AM on Thursday 18 Dec 2014 (Local Time) from EGHI Reporting Station
Overcast Overcast  
Wind Chill: 54°   Ceiling: 900
Heat Index: 54°   Visibility: 6mi
Dew Point: 52°   Wind: 14mph
Humidity: 94%   Direction: 250°WSW
Pressure: 29.88"   Gusts: NA
Location:  50.8°N, 1.2°W
Report Text: EGHI 180820Z 25012KT 220V280 9999 OVC009 12/11 Q1012
Loading
Personal Weather Stations






























Interactive Weather Map New forecast layout! Learn more

10-Day Weather Forecast

Advertisements
Track Severe Weather on mobile